Time;durP1;ratioP1;P1;durP2;ratioP2;P2;SDS_P1;SDS_P2;PMS_P1;PMS_P2;Temp;Humidity;BMP_temperature;BMP_pressure;BME280_temperature;BME280_humidity;BME280_pressure;Samples;Min_cycle;Max_cycle;Signal;HPM_P1;HPM_P2
2023/05/08 00:00:08;;;;;;;7.32;5.38;;;435.30;2355.20;;;;;;5050257;28;20017;-65
2023/05/08 00:02:33;;;;;;;7.03;4.25;;;435.30;2355.20;;;;;;5036192;28;20048;-69
2023/05/08 00:04:59;;;;;;;6.82;4.63;;;435.30;2355.20;;;;;;5050359;28;20103;-63
2023/05/08 00:07:25;;;;;;;6.80;4.45;;;435.40;2355.20;;;;;;5049681;28;20087;-61
2023/05/08 00:09:50;;;;;;;5.32;4.55;;;435.40;2355.20;;;;;;5049991;28;20036;-61
2023/05/08 00:12:16;;;;;;;5.63;4.88;;;435.40;2355.20;;;;;;5049592;28;20068;-64
2023/05/08 00:14:42;;;;;;;7.93;4.65;;;435.50;2355.20;;;;;;5049586;28;20020;-62
2023/05/08 00:17:07;;;;;;;7.65;4.35;;;435.50;2355.20;;;;;;5049299;28;20029;-69
2023/05/08 00:19:33;;;;;;;5.50;4.60;;;435.60;2355.20;;;;;;5049679;28;20256;-67
2023/05/08 00:21:59;;;;;;;5.47;4.53;;;435.70;2355.20;;;;;;5049798;28;20032;-69
2023/05/08 00:24:25;;;;;;;6.20;4.20;;;435.90;2355.20;;;;;;5049356;28;20082;-70
2023/05/08 00:26:50;;;;;;;7.45;5.10;;;435.90;2355.20;;;;;;5049611;28;20479;-68
2023/05/08 00:29:16;;;;;;;5.25;4.00;;;435.90;2355.20;;;;;;5048628;28;20036;-66
2023/05/08 00:31:42;;;;;;;6.60;4.43;;;436.00;2355.20;;;;;;5047506;28;20037;-69
2023/05/08 00:34:07;;;;;;;5.05;3.92;;;436.10;2355.20;;;;;;5043409;28;20075;-67
2023/05/08 00:36:33;;;;;;;7.28;5.25;;;436.10;2355.20;;;;;;5042134;28;20029;-65
2023/05/08 00:38:59;;;;;;;6.55;4.50;;;460.80;2380.80;;;;;;5049102;28;20024;-71
2023/05/08 00:41:25;;;;;;;6.07;4.72;;;460.80;2380.80;;;;;;5049571;28;20025;-61
2023/05/08 00:43:50;;;;;;;7.35;5.07;;;460.80;2380.80;;;;;;5035994;28;20471;-69
2023/05/08 00:46:16;;;;;;;6.32;4.75;;;460.80;2380.80;;;;;;5048801;28;20021;-63
2023/05/08 00:48:43;;;;;;;5.93;4.93;;;460.90;2380.80;;;;;;5048908;28;20032;-62
2023/05/08 00:51:10;;;;;;;5.68;4.65;;;461.00;2380.80;;;;;;5049533;28;20096;-62
2023/05/08 00:53:38;;;;;;;10.55;5.10;;;461.10;2380.80;;;;;;5048978;28;20021;-61
2023/05/08 00:56:05;;;;;;;6.63;4.78;;;461.20;2380.80;;;;;;5048655;28;20025;-61
2023/05/08 00:58:32;;;;;;;6.60;4.82;;;461.30;2380.80;;;;;;5049485;28;20028;-61
2023/05/08 01:00:59;;;;;;;8.82;4.60;;;461.30;2380.80;;;;;;5048669;28;20033;-62
2023/05/08 01:03:25;;;;;;;9.57;5.55;;;461.30;2380.80;;;;;;5046472;28;20029;-61
2023/05/08 01:05:53;;;;;;;7.60;5.13;;;461.30;2380.80;;;;;;5037101;28;20474;-68
2023/05/08 01:08:18;;;;;;;6.22;5.13;;;461.30;2380.80;;;;;;5048919;28;20162;-66
2023/05/08 01:11:16;;;;;;;6.43;5.50;;;461.30;2380.80;;;;;;5047660;28;20112;-62
2023/05/08 01:13:58;;;;;;;8.00;5.13;;;461.20;2380.80;;;;;;5028908;28;20036;-62
2023/05/08 01:16:38;;;;;;;7.05;4.85;;;461.10;2380.80;;;;;;5016455;28;20102;-61
2023/05/08 01:19:23;;;;;;;8.98;5.75;;;461.00;2380.80;;;;;;5028842;28;20025;-68
2023/05/08 01:22:19;;;;;;;7.07;5.10;;;461.00;2380.80;;;;;;5040686;28;20060;-61
2023/05/08 01:25:06;;;;;;;6.93;5.47;;;460.90;2380.80;;;;;;5039938;28;20041;-68
2023/05/08 01:27:53;;;;;;;7.82;4.95;;;461.00;2380.80;;;;;;5034084;28;20033;-62
2023/05/08 01:30:43;;;;;;;6.53;4.80;;;461.10;2380.80;;;;;;5048775;28;20033;-66
2023/05/08 01:33:29;;;;;;;7.65;5.88;;;461.30;2380.80;;;;;;5037264;28;20049;-68
2023/05/08 01:36:23;;;;;;;8.10;5.60;;;461.30;2380.80;;;;;;5016498;28;20552;-61
2023/05/08 01:39:19;;;;;;;11.38;6.30;;;461.40;2380.80;;;;;;5024353;28;20033;-60
2023/05/08 01:41:56;;;;;;;9.60;5.90;;;461.40;2380.80;;;;;;4947942;29;20163;-62
2023/05/08 01:44:27;;;;;;;9.25;5.75;;;461.30;2380.80;;;;;;4948679;29;20183;-61
2023/05/08 01:46:53;;;;;;;8.27;5.93;;;461.30;2380.80;;;;;;4947983;29;20517;-61
2023/05/08 01:49:33;;;;;;;9.60;6.25;;;461.20;2380.80;;;;;;4949970;28;20094;-68
2023/05/08 01:52:03;;;;;;;8.60;6.78;;;461.10;2380.80;;;;;;4951995;29;20039;-69
2023/05/08 01:54:37;;;;;;;9.43;6.40;;;461.10;2380.80;;;;;;4951844;29;20035;-62
2023/05/08 01:57:06;;;;;;;13.27;7.10;;;461.00;2380.80;;;;;;4940523;29;20070;-63
2023/05/08 01:59:35;;;;;;;11.63;7.05;;;460.80;2380.80;;;;;;4952217;29;20067;-68
2023/05/08 02:02:02;;;;;;;11.95;7.47;;;460.80;2380.80;;;;;;4951443;29;20070;-67
2023/05/08 02:04:29;;;;;;;10.50;8.57;;;436.10;2355.20;;;;;;4952068;29;20069;-66
2023/05/08 02:06:56;;;;;;;10.30;7.88;;;436.00;2355.20;;;;;;4951878;29;20148;-67
2023/05/08 02:09:24;;;;;;;9.18;8.23;;;435.90;2355.20;;;;;;4951603;29;20071;-63
2023/05/08 02:11:51;;;;;;;12.75;8.70;;;436.00;2355.20;;;;;;4951667;29;20042;-69
2023/05/08 02:14:19;;;;;;;15.85;9.45;;;435.90;2355.20;;;;;;4951434;29;20044;-68
2023/05/08 02:16:46;;;;;;;10.23;8.95;;;435.90;2355.20;;;;;;4970263;28;20094;-66
2023/05/08 02:19:15;;;;;;;11.73;9.25;;;435.90;2355.20;;;;;;5030362;28;20033;-62
2023/05/08 02:21:43;;;;;;;10.32;8.95;;;435.80;2355.20;;;;;;5040958;28;20083;-69
2023/05/08 02:24:09;;;;;;;12.25;10.95;;;435.80;2355.20;;;;;;5030839;28;20088;-62
2023/05/08 02:26:38;;;;;;;14.13;10.32;;;435.80;2355.20;;;;;;5046078;28;20443;-68
2023/05/08 02:29:04;;;;;;;15.65;12.02;;;435.70;2355.20;;;;;;5046093;28;20026;-68
2023/05/08 02:31:30;;;;;;;16.30;11.70;;;435.60;2355.20;;;;;;5043713;28;20025;-63
2023/05/08 02:33:57;;;;;;;16.98;11.02;;;435.60;2355.20;;;;;;5038273;28;20112;-70
2023/05/08 02:36:24;;;;;;;14.38;11.15;;;435.60;2355.20;;;;;;5051604;28;20087;-70
2023/05/08 02:38:53;;;;;;;12.32;10.90;;;435.60;2355.20;;;;;;5032167;28;20029;-70
2023/05/08 02:41:24;;;;;;;13.95;10.82;;;435.50;2355.20;;;;;;5044470;28;20025;-68
2023/05/08 02:43:53;;;;;;;13.95;12.10;;;435.60;2355.20;;;;;;5025555;28;20464;-61
2023/05/08 02:46:45;;;;;;;13.48;11.63;;;435.60;2355.20;;;;;;5050486;28;20054;-68
2023/05/08 02:49:52;;;;;;;12.55;10.93;;;435.60;2355.20;;;;;;5038764;28;20037;-61
2023/05/08 02:52:31;;;;;;;16.40;11.95;;;435.60;2355.20;;;;;;4960832;28;20382;-61
2023/05/08 02:55:03;;;;;;;14.70;11.95;;;435.50;2355.20;;;;;;4970178;28;20117;-64
2023/05/08 02:57:45;;;;;;;14.13;12.23;;;435.50;2355.20;;;;;;4970545;28;20045;-64
2023/05/08 03:00:15;;;;;;;13.63;11.90;;;435.50;2355.20;;;;;;4969464;28;20023;-70
2023/05/08 03:02:51;;;;;;;13.40;11.45;;;435.40;2355.20;;;;;;4969385;28;20047;-68
2023/05/08 03:05:21;;;;;;;15.23;11.63;;;435.50;2355.20;;;;;;4969614;28;20042;-69
2023/05/08 03:07:51;;;;;;;12.77;11.18;;;435.60;2355.20;;;;;;4969864;28;20148;-62
2023/05/08 03:10:20;;;;;;;14.98;11.43;;;435.60;2355.20;;;;;;4937549;28;20057;-61
2023/05/08 03:12:49;;;;;;;13.70;10.98;;;435.60;2355.20;;;;;;4969769;28;20476;-68
2023/05/08 03:15:35;;;;;;;14.25;11.30;;;435.70;2355.20;;;;;;4969659;28;20035;-67
2023/05/08 03:18:12;;;;;;;18.50;10.27;;;435.80;2355.20;;;;;;4969668;28;20453;-69
2023/05/08 03:20:41;;;;;;;13.88;11.63;;;435.80;2355.20;;;;;;4969997;28;20027;-61
2023/05/08 03:23:09;;;;;;;15.38;10.98;;;435.90;2355.20;;;;;;4969415;28;20038;-69
2023/05/08 03:25:38;;;;;;;15.48;11.77;;;435.90;2355.20;;;;;;4969483;28;20022;-70
2023/05/08 03:28:05;;;;;;;14.02;12.13;;;435.90;2355.20;;;;;;4979352;28;20053;-61
2023/05/08 03:30:37;;;;;;;14.07;12.50;;;435.90;2355.20;;;;;;5027468;28;20451;-61
2023/05/08 03:33:06;;;;;;;14.52;12.35;;;436.00;2355.20;;;;;;5030186;28;20026;-69
2023/05/08 03:35:36;;;;;;;11.90;10.25;;;435.90;2355.20;;;;;;5029961;28;20076;-62
2023/05/08 03:38:04;;;;;;;12.55;11.25;;;435.90;2355.20;;;;;;5030712;28;20465;-67
2023/05/08 03:40:29;;;;;;;12.43;11.10;;;435.90;2355.20;;;;;;5030489;28;20434;-63
2023/05/08 03:42:57;;;;;;;13.70;11.52;;;435.90;2355.20;;;;;;5030318;28;20021;-66
2023/05/08 03:45:23;;;;;;;12.52;10.48;;;435.90;2355.20;;;;;;5030088;28;20169;-68
2023/05/08 03:47:52;;;;;;;12.82;10.95;;;436.00;2355.20;;;;;;5029777;28;20041;-69
2023/05/08 03:50:18;;;;;;;12.25;10.30;;;436.00;2355.20;;;;;;5029868;28;20021;-61
2023/05/08 03:52:45;;;;;;;12.45;10.25;;;435.90;2355.20;;;;;;5030264;28;20039;-69
2023/05/08 03:55:11;;;;;;;12.55;10.88;;;435.90;2355.20;;;;;;5030038;28;20061;-63
2023/05/08 03:57:56;;;;;;;10.82;9.73;;;435.90;2355.20;;;;;;5030221;28;20049;-65
2023/05/08 04:00:35;;;;;;;12.90;11.05;;;435.90;2355.20;;;;;;5019372;28;20060;-69
2023/05/08 04:03:14;;;;;;;11.15;10.00;;;436.00;2355.20;;;;;;5029308;28;20060;-61
2023/05/08 04:05:51;;;;;;;13.40;10.40;;;436.00;2355.20;;;;;;5030050;28;20426;-61
2023/05/08 04:08:33;;;;;;;10.57;9.10;;;436.00;2355.20;;;;;;5029801;28;20193;-62
2023/05/08 04:11:16;;;;;;;10.68;8.20;;;436.10;2355.20;;;;;;5029709;28;20029;-69
2023/05/08 04:13:48;;;;;;;11.93;10.73;;;436.10;2355.20;;;;;;5029446;28;20026;-65
2023/05/08 04:16:24;;;;;;;12.40;9.00;;;436.00;2355.20;;;;;;5029407;28;20044;-66
2023/05/08 04:18:53;;;;;;;12.13;9.13;;;436.00;2355.20;;;;;;5029823;28;20033;-61
2023/05/08 04:21:22;;;;;;;10.68;9.52;;;436.10;2355.20;;;;;;5029701;28;20025;-68
2023/05/08 04:23:51;;;;;;;10.13;9.13;;;436.10;2355.20;;;;;;5029157;28;20034;-65
2023/05/08 04:26:17;;;;;;;12.85;9.38;;;436.10;2355.20;;;;;;5029222;28;20472;-70
2023/05/08 04:28:45;;;;;;;10.85;9.45;;;460.80;2380.80;;;;;;5029145;28;20052;-64
2023/05/08 04:31:14;;;;;;;11.20;9.40;;;436.10;2355.20;;;;;;5029502;28;20112;-64
2023/05/08 04:33:41;;;;;;;9.48;8.48;;;436.10;2355.20;;;;;;5029280;28;20030;-70
2023/05/08 04:36:11;;;;;;;14.25;9.85;;;436.10;2355.20;;;;;;5029413;28;20541;-62
2023/05/08 04:38:36;;;;;;;10.32;9.23;;;436.10;2355.20;;;;;;5029081;28;20025;-65
2023/05/08 04:41:03;;;;;;;10.85;9.35;;;436.00;2355.20;;;;;;5029575;28;20561;-62
2023/05/08 04:43:28;;;;;;;10.18;8.95;;;436.00;2355.20;;;;;;5029317;28;20092;-66
2023/05/08 04:45:54;;;;;;;10.70;9.43;;;436.00;2355.20;;;;;;5027353;28;20037;-69
2023/05/08 04:48:20;;;;;;;11.50;9.23;;;436.10;2355.20;;;;;;5029424;28;20076;-69
2023/05/08 04:50:45;;;;;;;10.00;8.57;;;436.00;2355.20;;;;;;5029098;28;20025;-70
2023/05/08 04:53:11;;;;;;;10.90;9.68;;;435.90;2355.20;;;;;;5029112;28;20030;-63
2023/05/08 04:55:37;;;;;;;10.20;9.10;;;435.90;2355.20;;;;;;5015836;28;20076;-71
2023/05/08 04:58:03;;;;;;;10.70;9.60;;;436.00;2355.20;;;;;;5029078;28;20032;-62
2023/05/08 05:00:29;;;;;;;12.02;9.80;;;435.90;2355.20;;;;;;5016006;28;20040;-61
2023/05/08 05:02:55;;;;;;;11.98;10.07;;;435.90;2355.20;;;;;;5028214;28;20054;-70
2023/05/08 05:05:21;;;;;;;11.20;9.90;;;435.90;2355.20;;;;;;5028724;28;20117;-68
2023/05/08 05:07:46;;;;;;;10.65;9.55;;;435.90;2355.20;;;;;;5028541;28;20479;-65
2023/05/08 05:10:12;;;;;;;10.85;9.30;;;436.00;2355.20;;;;;;5029209;28;20026;-62
2023/05/08 05:12:38;;;;;;;11.50;10.30;;;435.90;2355.20;;;;;;5028987;28;20108;-68
2023/05/08 05:15:04;;;;;;;11.30;10.13;;;436.00;2355.20;;;;;;5028709;28;20079;-66
2023/05/08 05:17:30;;;;;;;12.48;10.05;;;436.10;2355.20;;;;;;5042415;28;20076;-62
2023/05/08 05:19:56;;;;;;;13.65;10.70;;;436.10;2355.20;;;;;;5028607;28;20022;-69
2023/05/08 05:22:22;;;;;;;12.60;10.40;;;436.10;2355.20;;;;;;5027470;28;20025;-63
2023/05/08 05:24:48;;;;;;;11.68;10.48;;;436.10;2355.20;;;;;;5031627;28;20021;-70
2023/05/08 05:27:13;;;;;;;12.63;10.30;;;436.10;2355.20;;;;;;5032802;28;20048;-69
2023/05/08 05:29:39;;;;;;;12.02;10.82;;;436.10;2355.20;;;;;;5033069;28;20017;-64
2023/05/08 05:32:06;;;;;;;11.90;10.63;;;436.10;2355.20;;;;;;5031137;28;20029;-69
2023/05/08 05:34:33;;;;;;;11.65;10.45;;;436.10;2355.20;;;;;;5032779;28;20025;-63
2023/05/08 05:36:58;;;;;;;12.88;10.27;;;436.10;2355.20;;;;;;5033065;28;20014;-62
2023/05/08 05:39:24;;;;;;;12.85;11.43;;;436.00;2355.20;;;;;;5032600;28;20418;-64
2023/05/08 05:41:50;;;;;;;11.70;10.43;;;436.00;2355.20;;;;;;5032964;28;20053;-69
2023/05/08 05:44:15;;;;;;;12.02;10.35;;;436.10;2355.20;;;;;;5032194;28;20380;-66
2023/05/08 05:46:41;;;;;;;12.75;11.27;;;436.10;2355.20;;;;;;5032386;28;20032;-68
2023/05/08 05:49:07;;;;;;;13.70;10.07;;;436.00;2355.20;;;;;;5032482;28;20030;-64
2023/05/08 05:51:33;;;;;;;12.65;11.35;;;436.00;2355.20;;;;;;5032194;28;20029;-64
2023/05/08 05:53:58;;;;;;;14.00;11.63;;;435.90;2355.20;;;;;;5032482;28;20035;-62
2023/05/08 05:56:24;;;;;;;16.70;11.55;;;436.00;2355.20;;;;;;5032318;28;20021;-64
2023/05/08 05:58:50;;;;;;;10.77;9.68;;;436.10;2355.20;;;;;;5032397;28;20025;-67
2023/05/08 06:01:16;;;;;;;14.85;12.02;;;436.10;2355.20;;;;;;5031662;28;20049;-64
2023/05/08 06:03:42;;;;;;;13.77;10.63;;;460.80;2380.80;;;;;;5032233;28;20487;-68
2023/05/08 06:06:08;;;;;;;12.18;10.80;;;460.80;2380.80;;;;;;5032343;28;20486;-68
2023/05/08 06:08:34;;;;;;;14.63;11.68;;;460.80;2380.80;;;;;;5032720;28;20437;-64
2023/05/08 06:11:00;;;;;;;12.98;10.30;;;460.90;2380.80;;;;;;5049298;28;20017;-63
2023/05/08 06:13:26;;;;;;;12.73;10.23;;;460.90;2380.80;;;;;;5032117;28;20033;-67
2023/05/08 06:15:55;;;;;;;12.43;10.98;;;461.10;2380.80;;;;;;5031435;28;20014;-62
2023/05/08 06:18:21;;;;;;;14.48;11.95;;;461.10;2380.80;;;;;;5031864;28;20502;-67
2023/05/08 06:20:47;;;;;;;14.48;11.88;;;461.10;2380.80;;;;;;5031465;28;20086;-64
2023/05/08 06:23:14;;;;;;;13.95;11.00;;;461.10;2380.80;;;;;;5048554;28;20525;-67
2023/05/08 06:25:40;;;;;;;13.13;11.15;;;461.20;2380.80;;;;;;5051203;28;20111;-65
2023/05/08 06:28:06;;;;;;;12.98;11.60;;;461.30;2380.80;;;;;;5045895;28;20112;-66
2023/05/08 06:30:35;;;;;;;14.98;12.15;;;461.20;2380.80;;;;;;5032241;28;20529;-65
2023/05/08 06:33:01;;;;;;;13.98;12.15;;;461.20;2380.80;;;;;;5043195;28;20037;-67
2023/05/08 06:35:27;;;;;;;12.80;11.50;;;461.20;2380.80;;;;;;5030043;28;20024;-68
2023/05/08 06:37:52;;;;;;;13.32;11.93;;;461.20;2380.80;;;;;;5031496;28;20029;-67
2023/05/08 06:40:18;;;;;;;11.65;10.45;;;461.30;2380.80;;;;;;5031717;28;20030;-65
2023/05/08 06:42:45;;;;;;;12.05;10.65;;;461.30;2380.80;;;;;;5031213;28;20191;-65
2023/05/08 06:45:12;;;;;;;12.00;10.32;;;461.40;2380.80;;;;;;5044043;28;20022;-66
2023/05/08 06:47:37;;;;;;;13.38;10.80;;;461.40;2380.80;;;;;;5030805;28;20116;-65
2023/05/08 06:50:04;;;;;;;12.68;11.30;;;461.40;2380.80;;;;;;5031277;28;20432;-65
2023/05/08 06:52:29;;;;;;;12.77;11.45;;;461.60;2380.80;;;;;;5031156;28;20081;-67
2023/05/08 06:54:55;;;;;;;13.63;11.52;;;461.50;2380.80;;;;;;5030551;28;20394;-67
2023/05/08 06:57:21;;;;;;;12.32;10.82;;;461.70;2380.80;;;;;;5043238;28;20022;-63
2023/05/08 06:59:46;;;;;;;12.20;10.60;;;461.70;2380.80;;;;;;5030205;28;20037;-66
2023/05/08 07:02:12;;;;;;;14.20;11.55;;;486.40;2380.80;;;;;;5030677;28;20056;-65
2023/05/08 07:04:37;;;;;;;10.52;9.43;;;486.50;2380.80;;;;;;5031256;28;20030;-66
2023/05/08 07:07:05;;;;;;;12.40;11.13;;;486.40;2380.80;;;;;;5031084;28;20064;-64
2023/05/08 07:09:31;;;;;;;12.13;9.80;;;461.70;2380.80;;;;;;5031169;28;20017;-63
2023/05/08 07:11:56;;;;;;;14.52;10.60;;;461.60;2380.80;;;;;;5030901;28;20029;-67
2023/05/08 07:14:22;;;;;;;12.00;9.80;;;461.60;2380.80;;;;;;5030822;28;20172;-66
2023/05/08 07:16:48;;;;;;;13.30;10.05;;;486.40;2380.80;;;;;;5030443;28;20060;-67
2023/05/08 07:19:13;;;;;;;11.35;10.15;;;486.50;2380.80;;;;;;5030138;28;20045;-67
2023/05/08 07:21:39;;;;;;;10.82;9.02;;;486.50;2380.80;;;;;;5030260;28;20033;-67
2023/05/08 07:24:05;;;;;;;12.80;10.32;;;486.50;2380.80;;;;;;5030706;28;20053;-68
2023/05/08 07:26:31;;;;;;;10.70;9.40;;;486.50;2380.80;;;;;;5030920;28;20026;-64
2023/05/08 07:28:57;;;;;;;12.55;10.02;;;461.70;2380.80;;;;;;5030619;28;20134;-67
2023/05/08 07:31:22;;;;;;;8.65;7.55;;;461.70;2380.80;;;;;;5030270;28;20029;-66
2023/05/08 07:33:48;;;;;;;10.20;8.43;;;461.60;2380.80;;;;;;5030333;28;20037;-67
2023/05/08 07:36:14;;;;;;;8.77;7.55;;;461.40;2380.80;;;;;;5030201;28;20022;-68
2023/05/08 07:38:39;;;;;;;9.98;7.78;;;461.50;2380.80;;;;;;5029068;28;20032;-67
2023/05/08 07:41:05;;;;;;;10.70;7.70;;;461.50;2380.80;;;;;;5035841;28;20148;-67
2023/05/08 07:43:31;;;;;;;9.18;8.10;;;461.50;2380.80;;;;;;5050520;28;20071;-72
2023/05/08 07:45:57;;;;;;;9.77;7.90;;;461.50;2380.80;;;;;;5041882;28;20053;-71
2023/05/08 07:48:23;;;;;;;11.48;7.68;;;461.50;2380.80;;;;;;5023979;28;20041;-71
2023/05/08 07:50:49;;;;;;;8.57;7.18;;;461.60;2380.80;;;;;;5016929;28;20030;-70
2023/05/08 07:53:15;;;;;;;12.85;7.25;;;461.50;2380.80;;;;;;5024799;28;20484;-72
2023/05/08 07:55:41;;;;;;;9.27;8.35;;;461.40;2380.80;;;;;;5017356;28;20510;-68
2023/05/08 07:58:07;;;;;;;11.13;8.70;;;461.60;2380.80;;;;;;5017405;28;20021;-70
2023/05/08 08:00:33;;;;;;;7.95;7.15;;;461.70;2380.80;;;;;;5026830;28;20092;-70
2023/05/08 08:02:59;;;;;;;15.27;8.43;;;486.50;2380.80;;;;;;5010327;28;20435;-70
2023/05/08 08:05:24;;;;;;;7.07;6.35;;;461.70;2380.80;;;;;;5019384;28;20026;-70
2023/05/08 08:07:50;;;;;;;8.13;7.07;;;486.40;2380.80;;;;;;5018940;28;20045;-70
2023/05/08 08:10:16;;;;;;;8.20;6.68;;;486.50;2380.80;;;;;;5014510;28;20423;-70
2023/05/08 08:12:42;;;;;;;7.40;6.32;;;461.70;2380.80;;;;;;5019282;28;20064;-70
2023/05/08 08:15:08;;;;;;;8.15;5.90;;;486.40;2380.80;;;;;;5010659;28;20017;-71
2023/05/08 08:17:34;;;;;;;13.02;8.43;;;486.40;2380.80;;;;;;5014842;28;20051;-70
2023/05/08 08:19:59;;;;;;;7.32;6.25;;;461.70;2380.80;;;;;;5015500;28;20464;-70
2023/05/08 08:22:25;;;;;;;7.88;5.45;;;461.70;2380.80;;;;;;5021468;28;20025;-69
2023/05/08 08:24:54;;;;;;;8.40;7.03;;;461.50;2380.80;;;;;;5015654;28;20080;-69
2023/05/08 08:27:19;;;;;;;7.47;6.78;;;461.30;2380.80;;;;;;5017623;28;20040;-70
2023/05/08 08:29:45;;;;;;;6.35;5.70;;;461.40;2380.80;;;;;;5019848;28;20017;-70
2023/05/08 08:32:11;;;;;;;6.35;5.28;;;461.30;2380.80;;;;;;5013302;28;20046;-73
2023/05/08 08:34:37;;;;;;;6.55;5.65;;;461.30;2380.80;;;;;;5017327;28;20029;-70
2023/05/08 08:37:05;;;;;;;8.10;6.25;;;461.30;2380.80;;;;;;5019068;28;20026;-71
2023/05/08 08:39:34;;;;;;;9.55;7.35;;;461.40;2380.80;;;;;;5015134;28;20025;-71
2023/05/08 08:42:00;;;;;;;7.00;5.60;;;461.50;2380.80;;;;;;5020314;28;20471;-71
2023/05/08 08:44:26;;;;;;;7.20;5.45;;;461.10;2380.80;;;;;;5018849;28;20025;-69
2023/05/08 08:46:52;;;;;;;7.68;5.53;;;460.80;2380.80;;;;;;5027592;28;20029;-70
2023/05/08 08:49:34;;;;;;;8.27;6.07;;;436.10;2355.20;;;;;;5019646;28;20026;-69
2023/05/08 08:52:21;;;;;;;9.20;6.47;;;435.60;2355.20;;;;;;5015248;28;20057;-70
2023/05/08 08:54:49;;;;;;;171.18;139.82;;;435.70;2355.20;;;;;;5023026;28;20014;-73
2023/05/08 08:57:15;;;;;;;47.92;43.00;;;435.20;2355.20;;;;;;5017851;28;20105;-72
2023/05/08 08:59:43;;;;;;;39.80;35.85;;;435.60;2355.20;;;;;;5041770;28;20030;-72
2023/05/08 09:02:11;;;;;;;67.53;61.42;;;435.80;2355.20;;;;;;5035386;28;20052;-73
2023/05/08 09:04:37;;;;;;;28.80;26.20;;;435.60;2355.20;;;;;;5044922;28;20021;-69
2023/05/08 09:07:04;;;;;;;19.33;17.33;;;435.50;2355.20;;;;;;5036331;28;20483;-70
2023/05/08 09:09:32;;;;;;;35.80;32.30;;;435.60;2355.20;;;;;;5049353;28;20025;-72
2023/05/08 09:11:59;;;;;;;36.65;33.28;;;435.60;2355.20;;;;;;5038182;28;20017;-72
2023/05/08 09:14:25;;;;;;;34.47;31.23;;;435.50;2355.20;;;;;;5046984;28;20112;-71
2023/05/08 09:16:53;;;;;;;35.80;32.55;;;435.40;2355.20;;;;;;5046794;28;20116;-72
2023/05/08 09:19:19;;;;;;;15.82;13.98;;;435.40;2355.20;;;;;;5041192;28;20025;-68
2023/05/08 09:21:45;;;;;;;16.63;14.82;;;410.50;2355.20;;;;;;5048801;28;20067;-68
2023/05/08 09:24:11;;;;;;;33.00;29.05;;;410.20;2355.20;;;;;;5036226;28;20422;-68
2023/05/08 09:26:38;;;;;;;18.88;16.90;;;410.50;2355.20;;;;;;5028868;28;20026;-69
2023/05/08 09:29:21;;;;;;;16.17;14.48;;;410.50;2355.20;;;;;;5028674;28;20125;-68
2023/05/08 09:31:51;;;;;;;18.52;15.48;;;410.20;2355.20;;;;;;5027601;28;20091;-70
2023/05/08 09:34:26;;;;;;;14.75;12.30;;;410.20;2355.20;;;;;;5045071;28;20024;-72
2023/05/08 09:36:53;;;;;;;13.65;11.35;;;410.30;2355.20;;;;;;5045183;28;20092;-70
2023/05/08 09:39:24;;;;;;;68.55;61.45;;;410.20;2355.20;;;;;;5041843;28;20028;-72
2023/05/08 09:42:03;;;;;;;26.23;22.70;;;410.40;2355.20;;;;;;5040099;28;20033;-70
2023/05/08 09:44:52;;;;;;;66.95;53.15;;;410.50;2355.20;;;;;;5049030;28;20025;-70
2023/05/08 09:47:23;;;;;;;32.92;26.17;;;410.50;2355.20;;;;;;5048496;28;20026;-70
2023/05/08 09:50:09;;;;;;;51.67;46.03;;;435.30;2355.20;;;;;;5048693;28;20082;-69
2023/05/08 09:52:37;;;;;;;73.47;61.63;;;435.30;2355.20;;;;;;5017819;28;20030;-71
2023/05/08 09:55:05;;;;;;;22.00;18.17;;;435.30;2355.20;;;;;;5039179;28;20039;-69
2023/05/08 09:57:33;;;;;;;15.77;11.68;;;435.30;2355.20;;;;;;5048779;28;20017;-69
2023/05/08 10:00:05;;;;;;;21.77;19.00;;;435.50;2355.20;;;;;;5048518;28;20029;-72
2023/05/08 10:02:31;;;;;;;28.35;23.92;;;435.20;2355.20;;;;;;5048183;28;20057;-69
2023/05/08 10:04:57;;;;;;;20.67;17.88;;;410.50;2355.20;;;;;;5048219;28;20108;-69
2023/05/08 10:07:28;;;;;;;12.50;10.35;;;435.20;2355.20;;;;;;5038227;28;20029;-71
2023/05/08 10:09:58;;;;;;;19.92;17.17;;;410.50;2355.20;;;;;;5044166;28;20387;-71
2023/05/08 10:12:25;;;;;;;19.58;17.55;;;435.20;2355.20;;;;;;5037259;28;20029;-72
2023/05/08 10:14:51;;;;;;;13.43;11.05;;;435.20;2355.20;;;;;;5036826;28;20021;-70
2023/05/08 10:17:23;;;;;;;12.40;11.10;;;410.50;2355.20;;;;;;5052193;28;20028;-72
2023/05/08 10:19:54;;;;;;;17.93;15.97;;;435.30;2355.20;;;;;;5032208;28;20116;-70
2023/05/08 10:22:23;;;;;;;19.52;16.88;;;435.30;2355.20;;;;;;5032051;28;20107;-72
2023/05/08 10:24:55;;;;;;;15.55;12.85;;;410.20;2355.20;;;;;;5031741;28;20051;-69
2023/05/08 10:27:30;;;;;;;13.52;12.10;;;410.30;2355.20;;;;;;5044322;28;20032;-69
2023/05/08 10:30:02;;;;;;;16.13;13.82;;;410.20;2355.20;;;;;;5044712;28;20079;-69
2023/05/08 10:32:36;;;;;;;19.20;16.50;;;410.10;2355.20;;;;;;5031601;28;20430;-69
2023/05/08 10:35:05;;;;;;;17.05;12.77;;;410.30;2355.20;;;;;;5040856;28;20020;-71
2023/05/08 10:37:34;;;;;;;21.58;16.35;;;410.40;2355.20;;;;;;5035501;28;20493;-71
2023/05/08 10:40:02;;;;;;;25.33;19.42;;;410.50;2355.20;;;;;;5031652;28;20069;-70
2023/05/08 10:42:29;;;;;;;17.05;14.15;;;410.50;2355.20;;;;;;5030020;28;20075;-70
2023/05/08 10:44:55;;;;;;;26.02;23.17;;;410.50;2355.20;;;;;;5031280;28;20030;-71
2023/05/08 10:47:54;;;;;;;17.90;15.88;;;410.30;2355.20;;;;;;5031283;28;20028;-69
2023/05/08 10:50:57;;;;;;;17.63;13.23;;;410.20;2355.20;;;;;;5031187;28;20026;-69
2023/05/08 10:53:38;;;;;;;21.95;17.63;;;410.20;2355.20;;;;;;5031158;28;20061;-70
2023/05/08 10:56:04;;;;;;;38.10;32.33;;;410.10;2355.20;;;;;;5019631;28;20049;-71
2023/05/08 10:58:38;;;;;;;34.55;28.15;;;410.10;2355.20;;;;;;5031161;28;20026;-67
2023/05/08 11:01:06;;;;;;;19.33;15.27;;;410.10;2355.20;;;;;;5030864;28;20119;-70
2023/05/08 11:03:38;;;;;;;27.52;23.52;;;410.00;2355.20;;;;;;5031952;28;20021;-69
2023/05/08 11:06:03;;;;;;;23.83;18.58;;;410.10;2355.20;;;;;;5042949;28;20084;-70
2023/05/08 11:08:31;;;;;;;25.92;20.23;;;409.90;2355.20;;;;;;5031370;28;20033;-70
2023/05/08 11:11:00;;;;;;;22.20;17.60;;;410.10;2355.20;;;;;;5030939;28;20025;-69
2023/05/08 11:13:33;;;;;;;49.58;38.92;;;410.20;2355.20;;;;;;5031160;28;20471;-71
2023/05/08 11:15:59;;;;;;;30.27;23.98;;;410.20;2355.20;;;;;;5031037;28;20026;-71
2023/05/08 11:18:25;;;;;;;45.10;33.65;;;410.10;2355.20;;;;;;5030643;28;20051;-69
2023/05/08 11:21:03;;;;;;;58.78;45.08;;;410.00;2355.20;;;;;;5029993;28;20376;-69
2023/05/08 11:23:30;;;;;;;43.85;34.90;;;410.20;2355.20;;;;;;5030917;28;20026;-69
2023/05/08 11:26:39;;;;;;;31.20;24.30;;;410.20;2355.20;;;;;;5030613;28;20022;-69
2023/05/08 11:29:16;;;;;;;25.13;20.65;;;410.20;2355.20;;;;;;5013246;28;20065;-69
2023/05/08 11:31:52;;;;;;;29.15;22.25;;;410.30;2355.20;;;;;;5029191;28;20046;-70
2023/05/08 11:34:42;;;;;;;24.08;17.52;;;410.20;2355.20;;;;;;5030768;28;20052;-69
2023/05/08 11:37:10;;;;;;;27.77;20.50;;;410.10;2355.20;;;;;;5030648;28;20021;-69
2023/05/08 11:39:36;;;;;;;28.48;21.40;;;410.00;2355.20;;;;;;5030182;28;20555;-71
2023/05/08 11:42:25;;;;;;;26.33;20.13;;;410.00;2355.20;;;;;;5030474;28;20025;-69
2023/05/08 11:45:07;;;;;;;24.25;19.10;;;409.90;2355.20;;;;;;5020248;28;20475;-69
2023/05/08 11:47:37;;;;;;;29.38;20.23;;;410.00;2355.20;;;;;;5029975;28;20030;-69
2023/05/08 11:50:04;;;;;;;26.83;19.10;;;410.00;2355.20;;;;;;5028678;28;20418;-69
2023/05/08 11:52:34;;;;;;;24.33;16.80;;;409.90;2355.20;;;;;;5030617;28;20025;-68
2023/05/08 11:55:05;;;;;;;25.63;16.85;;;409.90;2355.20;;;;;;5030054;28;20029;-71
2023/05/08 11:57:32;;;;;;;20.85;15.75;;;409.70;2355.20;;;;;;5030442;28;20028;-70
2023/05/08 12:00:03;;;;;;;21.45;15.93;;;409.90;2355.20;;;;;;5030048;28;20051;-69
2023/05/08 12:02:37;;;;;;;18.08;14.68;;;410.00;2355.20;;;;;;5029940;28;20471;-69
2023/05/08 12:05:03;;;;;;;22.85;16.85;;;409.70;2355.20;;;;;;5017753;28;20025;-70
2023/05/08 12:07:29;;;;;;;25.30;16.20;;;409.60;2355.20;;;;;;5029664;28;20029;-71
2023/05/08 12:09:55;;;;;;;19.08;14.68;;;384.90;2329.60;;;;;;5034894;28;20029;-71
2023/05/08 12:12:20;;;;;;;24.80;18.83;;;409.60;2355.20;;;;;;5044343;28;20022;-68
2023/05/08 12:14:50;;;;;;;49.42;31.73;;;409.60;2355.20;;;;;;5043056;28;20110;-72
2023/05/08 12:17:19;;;;;;;41.00;28.70;;;409.70;2355.20;;;;;;5048990;28;20048;-69